Time;durP1;ratioP1;P1;durP2;ratioP2;P2;SDS_P1;SDS_P2;PMS_P1;PMS_P2;Temp;Humidity;BMP_temperature;BMP_pressure;BME280_temperature;BME280_humidity;BME280_pressure;Samples;Min_cycle;Max_cycle;Signal;HPM_P1;HPM_P2
2023/11/09 00:00:44;;;;;;;0.32;0.32;;;8.00;99.90;;;;;;4405225;32;20521;-62
2023/11/09 00:03:10;;;;;;;4.15;1.55;;;8.00;99.90;;;;;;4405794;32;20089;-61
2023/11/09 00:05:35;;;;;;;0.47;0.47;;;8.00;99.90;;;;;;4404169;32;20081;-59
2023/11/09 00:08:01;;;;;;;0.30;0.30;;;8.10;99.90;;;;;;4403005;32;20124;-59
2023/11/09 00:10:27;;;;;;;0.30;0.30;;;8.00;99.90;;;;;;4388712;32;20486;-60
2023/11/09 00:12:53;;;;;;;0.32;0.32;;;8.10;99.90;;;;;;4403322;32;20057;-60
2023/11/09 00:15:20;;;;;;;0.20;0.20;;;8.00;99.90;;;;;;4403090;32;20602;-59
2023/11/09 00:17:46;;;;;;;0.30;0.30;;;8.10;99.90;;;;;;4402792;32;20963;-57
2023/11/09 00:20:12;;;;;;;0.28;0.28;;;8.10;99.90;;;;;;4404429;32;20837;-60
2023/11/09 00:22:39;;;;;;;0.22;0.22;;;8.10;99.90;;;;;;4402509;32;20441;-59
2023/11/09 00:25:05;;;;;;;2.12;1.15;;;8.10;99.90;;;;;;4404999;32;20123;-61
2023/11/09 00:27:30;;;;;;;0.47;0.47;;;8.10;99.90;;;;;;4401325;32;20514;-61
2023/11/09 00:29:55;;;;;;;0.40;0.40;;;8.00;99.90;;;;;;4402930;32;20070;-60
2023/11/09 00:32:21;;;;;;;0.25;0.25;;;8.10;99.90;;;;;;4403113;32;20066;-60
2023/11/09 00:34:48;;;;;;;0.98;0.40;;;8.00;99.90;;;;;;4405533;32;20472;-61
2023/11/09 00:37:14;;;;;;;0.30;0.30;;;8.00;99.90;;;;;;4399138;32;20537;-60
2023/11/09 00:39:39;;;;;;;2.40;1.27;;;8.10;99.90;;;;;;4405056;32;20113;-61
2023/11/09 00:42:06;;;;;;;2.08;0.50;;;8.10;99.90;;;;;;4402118;32;20058;-61
2023/11/09 00:44:31;;;;;;;2.47;1.20;;;8.10;99.90;;;;;;4401980;32;20551;-59
2023/11/09 00:46:57;;;;;;;0.30;0.30;;;8.10;99.90;;;;;;4402519;32;20086;-62
2023/11/09 00:49:23;;;;;;;0.45;0.45;;;8.10;99.90;;;;;;4404706;32;20109;-60
2023/11/09 00:51:48;;;;;;;1.67;1.10;;;8.10;99.90;;;;;;4405783;32;20093;-60
2023/11/09 00:54:14;;;;;;;0.30;0.30;;;8.00;99.90;;;;;;4402466;32;20232;-59
2023/11/09 00:56:39;;;;;;;0.30;0.30;;;8.10;99.90;;;;;;4401235;32;20105;-61
2023/11/09 00:59:06;;;;;;;1.08;1.00;;;8.10;99.90;;;;;;4401671;32;20139;-61
2023/11/09 01:01:31;;;;;;;0.90;0.85;;;8.00;99.90;;;;;;4404852;32;20117;-61
2023/11/09 01:03:57;;;;;;;0.30;0.30;;;8.00;99.90;;;;;;4403144;32;20532;-60
2023/11/09 01:06:22;;;;;;;0.20;0.20;;;8.10;99.90;;;;;;4404074;32;20059;-60
2023/11/09 01:08:48;;;;;;;0.25;0.25;;;8.10;99.90;;;;;;4402755;32;20533;-61
2023/11/09 01:11:21;;;;;;;0.30;0.30;;;8.10;99.90;;;;;;4390326;32;20065;-61
2023/11/09 01:13:47;;;;;;;1.15;0.62;;;8.10;99.90;;;;;;4403640;32;20105;-61
2023/11/09 01:16:12;;;;;;;0.30;0.30;;;8.00;99.90;;;;;;4402827;32;20509;-61
2023/11/09 01:18:38;;;;;;;0.47;0.47;;;8.00;99.90;;;;;;4401690;32;20124;-61
2023/11/09 01:21:04;;;;;;;0.75;0.75;;;8.00;99.90;;;;;;4405537;32;20093;-61
2023/11/09 01:23:30;;;;;;;0.40;0.40;;;8.10;99.90;;;;;;4403661;32;20125;-60
2023/11/09 01:25:56;;;;;;;0.47;0.47;;;8.10;99.90;;;;;;4402253;32;20101;-61
2023/11/09 01:28:21;;;;;;;0.62;0.57;;;8.10;99.90;;;;;;4401895;32;20112;-60
2023/11/09 01:30:47;;;;;;;0.70;0.40;;;8.10;99.90;;;;;;4399468;32;20426;-60
2023/11/09 01:33:12;;;;;;;0.50;0.50;;;8.10;99.90;;;;;;4402843;32;20094;-61
2023/11/09 01:35:38;;;;;;;0.28;0.28;;;8.20;99.90;;;;;;4402723;32;20438;-60
2023/11/09 01:38:03;;;;;;;0.43;0.43;;;8.10;99.90;;;;;;4400193;32;20082;-61
2023/11/09 01:40:30;;;;;;;1.65;0.93;;;8.10;99.90;;;;;;4403654;32;20105;-60
2023/11/09 01:42:55;;;;;;;0.30;0.30;;;8.10;99.90;;;;;;4401287;32;20108;-61
2023/11/09 01:45:21;;;;;;;0.30;0.30;;;8.10;99.90;;;;;;4402531;32;20195;-60
2023/11/09 01:47:47;;;;;;;0.40;0.40;;;8.10;99.90;;;;;;4399981;32;20109;-61
2023/11/09 01:50:14;;;;;;;6.82;1.42;;;8.10;99.90;;;;;;4404095;32;20529;-60
2023/11/09 01:52:40;;;;;;;0.40;0.40;;;8.20;99.90;;;;;;4403561;32;20070;-59
2023/11/09 01:55:06;;;;;;;0.40;0.40;;;8.10;99.90;;;;;;4404397;32;20113;-61
2023/11/09 01:57:33;;;;;;;0.30;0.30;;;8.10;99.90;;;;;;4399050;32;20575;-60
2023/11/09 02:00:00;;;;;;;0.30;0.30;;;8.10;99.90;;;;;;4402305;32;20137;-61
2023/11/09 02:02:25;;;;;;;0.60;0.60;;;8.10;99.90;;;;;;4402391;32;20094;-60
2023/11/09 02:04:53;;;;;;;0.30;0.30;;;8.10;99.90;;;;;;4403286;32;20382;-61
2023/11/09 02:07:19;;;;;;;0.28;0.28;;;8.10;99.90;;;;;;4401105;32;20089;-61
2023/11/09 02:09:46;;;;;;;1.35;0.95;;;8.00;99.90;;;;;;4404265;32;20106;-60
2023/11/09 02:12:12;;;;;;;0.25;0.25;;;8.00;99.90;;;;;;4401785;32;20085;-61
2023/11/09 02:14:37;;;;;;;0.20;0.20;;;8.00;99.90;;;;;;4403914;32;20163;-60
2023/11/09 02:17:05;;;;;;;0.60;0.60;;;8.00;99.90;;;;;;4401065;32;20081;-61
2023/11/09 02:19:31;;;;;;;0.20;0.20;;;8.10;99.90;;;;;;4400196;32;20094;-61
2023/11/09 02:21:57;;;;;;;0.30;0.30;;;8.10;99.90;;;;;;4385157;32;20156;-59
2023/11/09 02:24:25;;;;;;;0.30;0.30;;;8.10;99.90;;;;;;4400775;32;20470;-59
2023/11/09 02:26:51;;;;;;;0.20;0.20;;;8.10;99.90;;;;;;4401840;32;20482;-60
2023/11/09 02:29:20;;;;;;;0.20;0.20;;;8.00;99.90;;;;;;4401866;32;20069;-60
2023/11/09 02:31:45;;;;;;;0.65;0.62;;;8.00;99.90;;;;;;4399742;32;20124;-61
2023/11/09 02:34:12;;;;;;;0.50;0.50;;;8.10;99.90;;;;;;4403030;32;20100;-60
2023/11/09 02:36:39;;;;;;;0.55;0.55;;;8.10;99.90;;;;;;4401762;32;20121;-61
2023/11/09 02:39:05;;;;;;;0.80;0.50;;;8.10;99.90;;;;;;4399155;32;20058;-59
2023/11/09 02:41:30;;;;;;;0.30;0.30;;;8.10;99.90;;;;;;4398544;32;20220;-60
2023/11/09 02:43:56;;;;;;;23.65;2.47;;;8.10;99.90;;;;;;4401896;32;21262;-57
2023/11/09 02:46:21;;;;;;;0.30;0.30;;;8.10;99.90;;;;;;4400991;32;20077;-61
2023/11/09 02:48:46;;;;;;;0.30;0.30;;;8.20;99.90;;;;;;4402612;32;20065;-61
2023/11/09 02:51:12;;;;;;;0.30;0.30;;;8.10;99.90;;;;;;4398192;32;20090;-61
2023/11/09 02:53:39;;;;;;;0.30;0.30;;;8.10;99.90;;;;;;4403162;32;20533;-60
2023/11/09 02:56:05;;;;;;;0.30;0.30;;;8.10;99.90;;;;;;4401053;32;20054;-61
2023/11/09 02:58:33;;;;;;;0.20;0.20;;;8.10;99.90;;;;;;4401453;32;20462;-61
2023/11/09 03:00:58;;;;;;;0.30;0.30;;;8.00;99.90;;;;;;4402141;32;20541;-60
2023/11/09 03:03:24;;;;;;;0.30;0.30;;;8.10;99.90;;;;;;4399702;32;20133;-61
2023/11/09 03:05:52;;;;;;;0.30;0.30;;;8.10;99.90;;;;;;4402782;32;20539;-61
2023/11/09 03:08:19;;;;;;;0.30;0.30;;;8.00;99.90;;;;;;4381707;32;20065;-61
2023/11/09 03:10:44;;;;;;;3.20;0.47;;;8.00;99.90;;;;;;4404008;32;20062;-61
2023/11/09 03:13:11;;;;;;;0.45;0.45;;;7.90;99.90;;;;;;4404020;32;20132;-61
2023/11/09 03:15:37;;;;;;;0.30;0.30;;;7.80;99.90;;;;;;4404199;32;20167;-59
2023/11/09 03:18:02;;;;;;;1.55;0.65;;;7.90;99.90;;;;;;4398856;32;20544;-60
2023/11/09 03:20:28;;;;;;;0.30;0.30;;;7.80;99.90;;;;;;4400888;32;20503;-60
2023/11/09 03:22:53;;;;;;;0.30;0.30;;;7.70;99.90;;;;;;4395111;32;20126;-59
2023/11/09 03:25:19;;;;;;;0.25;0.25;;;7.80;99.90;;;;;;4402311;32;20513;-60
2023/11/09 03:27:44;;;;;;;0.30;0.30;;;7.80;99.90;;;;;;4402864;32;20061;-59
2023/11/09 03:30:10;;;;;;;0.30;0.30;;;7.70;99.90;;;;;;4401301;32;20138;-60
2023/11/09 03:32:36;;;;;;;0.20;0.20;;;7.80;99.90;;;;;;4404456;32;20069;-61
2023/11/09 03:35:02;;;;;;;0.37;0.37;;;7.80;99.90;;;;;;4403053;32;20081;-61
2023/11/09 03:37:27;;;;;;;0.30;0.30;;;7.90;99.90;;;;;;4400365;32;20448;-61
2023/11/09 03:39:55;;;;;;;0.35;0.35;;;7.90;99.90;;;;;;4402451;32;20475;-60
2023/11/09 03:42:20;;;;;;;0.30;0.30;;;7.90;99.90;;;;;;4387944;32;20070;-60
2023/11/09 03:44:47;;;;;;;0.40;0.40;;;7.90;99.90;;;;;;4401246;32;20420;-61
2023/11/09 03:47:12;;;;;;;0.30;0.30;;;7.90;99.90;;;;;;4399404;32;20098;-60
2023/11/09 03:49:39;;;;;;;0.20;0.20;;;7.90;99.90;;;;;;4403539;32;20070;-61
2023/11/09 03:52:05;;;;;;;0.20;0.20;;;7.90;99.90;;;;;;4401391;32;20078;-60
2023/11/09 03:54:30;;;;;;;0.30;0.30;;;8.00;99.90;;;;;;4404219;32;20081;-61
2023/11/09 03:56:56;;;;;;;0.20;0.20;;;8.00;99.90;;;;;;4399075;32;20187;-61
2023/11/09 03:59:21;;;;;;;0.40;0.40;;;8.00;99.90;;;;;;4399128;32;20066;-60
2023/11/09 04:01:47;;;;;;;0.35;0.35;;;8.00;99.90;;;;;;4401393;32;20124;-60
2023/11/09 04:04:14;;;;;;;0.20;0.20;;;8.10;99.90;;;;;;4404040;32;20097;-61
2023/11/09 04:06:40;;;;;;;0.20;0.20;;;8.10;99.90;;;;;;4401523;32;20081;-60
2023/11/09 04:09:07;;;;;;;0.45;0.45;;;8.00;99.90;;;;;;4399481;32;20628;-61
2023/11/09 04:11:33;;;;;;;0.25;0.25;;;8.10;99.90;;;;;;4385282;32;20288;-59
2023/11/09 04:13:59;;;;;;;0.37;0.37;;;8.10;99.90;;;;;;4399454;32;20086;-60
2023/11/09 04:16:25;;;;;;;0.30;0.30;;;8.20;99.90;;;;;;4402167;32;20090;-61
2023/11/09 04:18:51;;;;;;;0.40;0.40;;;8.20;99.90;;;;;;4400631;32;20094;-60
2023/11/09 04:21:16;;;;;;;0.30;0.30;;;8.30;99.90;;;;;;4406033;32;20755;-60
2023/11/09 04:23:41;;;;;;;0.20;0.20;;;8.30;99.90;;;;;;4407324;32;20070;-60
2023/11/09 04:26:08;;;;;;;0.40;0.40;;;8.40;99.90;;;;;;4404456;32;20473;-61
2023/11/09 04:28:35;;;;;;;0.30;0.30;;;8.50;99.90;;;;;;4402453;32;20173;-60
2023/11/09 04:31:04;;;;;;;0.20;0.20;;;8.50;99.90;;;;;;4400791;32;20105;-61
2023/11/09 04:33:30;;;;;;;0.20;0.20;;;8.60;99.90;;;;;;4404059;32;20089;-61
2023/11/09 04:35:56;;;;;;;0.30;0.30;;;8.70;99.90;;;;;;4404354;32;20077;-61
2023/11/09 04:38:23;;;;;;;0.30;0.30;;;8.70;99.90;;;;;;4402680;32;20054;-59
2023/11/09 04:40:55;;;;;;;0.25;0.25;;;8.80;99.90;;;;;;4405123;32;20549;-60
2023/11/09 04:43:22;;;;;;;0.30;0.30;;;8.80;99.90;;;;;;4404448;32;20115;-61
2023/11/09 04:45:47;;;;;;;0.30;0.30;;;8.90;99.90;;;;;;4405747;32;20065;-61
2023/11/09 04:48:20;;;;;;;0.28;0.28;;;8.90;99.90;;;;;;4402804;32;20086;-60
2023/11/09 04:50:52;;;;;;;0.30;0.30;;;8.90;99.90;;;;;;4403492;32;20487;-61
2023/11/09 04:53:30;;;;;;;0.20;0.20;;;9.00;99.90;;;;;;4406455;32;20074;-61
2023/11/09 04:56:04;;;;;;;0.35;0.35;;;9.00;99.90;;;;;;4404339;32;20375;-60
2023/11/09 05:06:48;;;;;;;0.20;0.20;;;9.10;99.90;;;;;;4399844;32;20061;-60
2023/11/09 05:06:48;;;;;;;0.75;0.75;;;9.30;99.90;;;;;;4391336;32;20085;-60
2023/11/09 05:07:01;;;;;;;0.30;0.30;;;9.20;99.90;;;;;;4391334;32;20094;-61
2023/11/09 05:09:14;;;;;;;0.20;0.20;;;9.30;99.90;;;;;;4402174;32;20212;-61
2023/11/09 05:11:40;;;;;;;0.20;0.20;;;9.30;99.90;;;;;;4406363;32;20074;-61
2023/11/09 05:14:05;;;;;;;0.20;0.20;;;9.30;99.90;;;;;;4405079;32;20493;-60
2023/11/09 05:16:31;;;;;;;0.20;0.20;;;9.20;99.90;;;;;;4400292;32;20098;-61
2023/11/09 05:18:56;;;;;;;0.30;0.30;;;9.20;99.90;;;;;;4400224;32;20132;-60
2023/11/09 05:21:23;;;;;;;0.32;0.32;;;9.20;99.90;;;;;;4398892;32;20133;-61
2023/11/09 05:23:49;;;;;;;0.20;0.20;;;9.20;99.90;;;;;;4404091;32;20069;-61
2023/11/09 05:26:14;;;;;;;0.25;0.25;;;9.30;99.90;;;;;;4402722;32;20540;-60
2023/11/09 05:28:40;;;;;;;0.25;0.25;;;9.30;99.90;;;;;;4400770;32;20529;-61
2023/11/09 05:31:08;;;;;;;0.52;0.40;;;9.30;99.90;;;;;;4402961;32;20057;-61
2023/11/09 05:33:34;;;;;;;0.30;0.30;;;9.40;99.90;;;;;;4402814;32;20082;-61
2023/11/09 05:36:00;;;;;;;0.30;0.30;;;9.40;99.90;;;;;;4401155;32;20503;-58
2023/11/09 05:38:26;;;;;;;0.30;0.30;;;9.50;99.90;;;;;;4399171;32;20094;-60
2023/11/09 05:40:52;;;;;;;0.47;0.47;;;9.40;99.90;;;;;;4401678;32;20553;-62
2023/11/09 05:43:18;;;;;;;0.20;0.20;;;9.50;99.90;;;;;;4402807;32;20077;-60
2023/11/09 05:45:44;;;;;;;0.30;0.30;;;9.50;99.90;;;;;;4400624;32;20098;-59
2023/11/09 05:48:09;;;;;;;0.25;0.25;;;9.50;99.90;;;;;;4404915;32;20459;-60
2023/11/09 05:50:35;;;;;;;0.30;0.30;;;9.50;99.90;;;;;;4399661;32;20086;-60
2023/11/09 05:53:01;;;;;;;0.20;0.20;;;9.50;99.90;;;;;;4402850;32;20150;-59
2023/11/09 05:55:30;;;;;;;0.35;0.35;;;9.50;99.90;;;;;;4403762;32;20125;-61
2023/11/09 05:57:58;;;;;;;0.20;0.20;;;9.50;99.90;;;;;;4399385;32;20115;-61
2023/11/09 06:00:25;;;;;;;0.20;0.20;;;9.50;99.90;;;;;;4398345;32;20078;-61
2023/11/09 06:02:50;;;;;;;0.20;0.20;;;9.50;99.90;;;;;;4398395;32;20081;-60
2023/11/09 06:05:17;;;;;;;0.62;0.50;;;9.50;99.90;;;;;;4386369;32;20065;-59
2023/11/09 06:07:44;;;;;;;0.30;0.30;;;9.50;99.90;;;;;;4399488;32;20097;-60
2023/11/09 06:10:11;;;;;;;0.32;0.30;;;9.50;99.90;;;;;;4400489;32;20077;-60
2023/11/09 06:12:37;;;;;;;0.20;0.20;;;9.60;99.90;;;;;;4401372;32;20137;-61
2023/11/09 06:15:03;;;;;;;0.20;0.20;;;9.60;99.90;;;;;;4403161;32;20073;-60
2023/11/09 06:17:28;;;;;;;0.30;0.30;;;9.60;99.90;;;;;;4386524;32;20105;-60
2023/11/09 06:19:55;;;;;;;0.20;0.20;;;9.60;99.90;;;;;;4399981;32;20062;-61
2023/11/09 06:22:20;;;;;;;1.83;0.40;;;9.60;99.90;;;;;;4388525;32;20075;-60
2023/11/09 06:24:46;;;;;;;0.30;0.30;;;9.60;99.90;;;;;;4403405;32;20521;-60
2023/11/09 06:27:11;;;;;;;0.30;0.30;;;9.60;99.90;;;;;;4389249;32;20431;-60
2023/11/09 06:29:37;;;;;;;0.28;0.28;;;9.70;99.90;;;;;;4398220;32;20287;-61
2023/11/09 06:32:04;;;;;;;0.60;0.60;;;9.70;99.90;;;;;;4379006;32;20090;-58
2023/11/09 06:34:29;;;;;;;1.05;0.60;;;9.70;99.90;;;;;;4403439;32;20556;-61
2023/11/09 06:36:56;;;;;;;0.30;0.30;;;9.70;99.90;;;;;;4396072;32;20085;-60
2023/11/09 06:39:22;;;;;;;0.30;0.30;;;9.70;99.90;;;;;;4398485;32;20611;-60
2023/11/09 06:41:48;;;;;;;1.85;1.10;;;9.80;99.90;;;;;;4399299;32;20478;-60
2023/11/09 06:44:14;;;;;;;0.30;0.30;;;9.80;99.90;;;;;;4393719;32;20082;-61
2023/11/09 06:46:40;;;;;;;0.20;0.20;;;9.80;99.90;;;;;;4369229;32;20578;-58
2023/11/09 06:49:07;;;;;;;0.28;0.28;;;9.80;99.90;;;;;;4394234;32;20128;-61
2023/11/09 06:51:34;;;;;;;5.93;0.68;;;9.90;99.90;;;;;;4400969;32;20078;-61
2023/11/09 06:54:02;;;;;;;0.70;0.55;;;9.80;99.90;;;;;;4401505;32;20081;-61
2023/11/09 06:56:29;;;;;;;0.62;0.40;;;9.80;99.90;;;;;;4381386;32;20089;-61
2023/11/09 06:58:54;;;;;;;0.45;0.45;;;9.80;99.90;;;;;;4382074;32;20129;-61
2023/11/09 07:01:21;;;;;;;0.30;0.30;;;9.80;99.90;;;;;;4397630;32;20081;-60
2023/11/09 07:03:47;;;;;;;0.30;0.30;;;9.80;99.90;;;;;;4396296;32;20474;-60
2023/11/09 07:06:12;;;;;;;0.30;0.30;;;9.70;99.90;;;;;;4399450;32;20204;-61
2023/11/09 07:08:38;;;;;;;0.55;0.55;;;9.70;99.90;;;;;;4400170;32;20199;-60
2023/11/09 07:11:07;;;;;;;0.50;0.50;;;9.80;99.90;;;;;;4397416;32;20510;-60
2023/11/09 07:13:32;;;;;;;0.40;0.40;;;9.80;99.90;;;;;;4400101;32;20097;-61
2023/11/09 07:15:58;;;;;;;1.85;0.55;;;9.80;99.90;;;;;;4397042;32;20543;-61
2023/11/09 07:18:23;;;;;;;0.20;0.20;;;9.70;99.90;;;;;;4395329;32;20070;-60
2023/11/09 07:20:51;;;;;;;0.20;0.20;;;9.70;99.90;;;;;;4398733;32;20666;-60
2023/11/09 07:23:17;;;;;;;0.32;0.32;;;9.70;99.90;;;;;;4401024;32;20089;-60
2023/11/09 07:25:43;;;;;;;0.32;0.32;;;9.70;99.90;;;;;;4383878;32;20061;-59
2023/11/09 07:28:08;;;;;;;0.30;0.30;;;9.80;99.90;;;;;;4394339;32;20089;-61
2023/11/09 07:30:35;;;;;;;0.50;0.50;;;9.70;99.90;;;;;;4397645;32;20089;-60
2023/11/09 07:33:01;;;;;;;0.50;0.50;;;9.70;99.90;;;;;;4397111;32;20086;-60
2023/11/09 07:35:29;;;;;;;0.50;0.50;;;9.70;99.90;;;;;;4394713;32;20529;-59
2023/11/09 07:37:55;;;;;;;0.40;0.40;;;9.70;99.90;;;;;;4396587;32;20077;-60
2023/11/09 07:40:20;;;;;;;0.40;0.40;;;9.70;99.90;;;;;;4395637;32;20090;-61
2023/11/09 07:42:46;;;;;;;0.20;0.20;;;9.70;99.90;;;;;;4400435;32;20077;-59
2023/11/09 07:45:11;;;;;;;0.35;0.35;;;9.70;99.90;;;;;;4395236;32;21728;-59
2023/11/09 07:47:37;;;;;;;0.25;0.25;;;9.70;99.90;;;;;;4394148;32;20224;-60
2023/11/09 07:50:04;;;;;;;0.45;0.45;;;9.80;99.90;;;;;;4401456;32;20066;-60
2023/11/09 07:52:31;;;;;;;0.20;0.20;;;9.80;99.90;;;;;;4398709;32;20462;-60
2023/11/09 07:54:56;;;;;;;1.15;0.43;;;9.80;99.90;;;;;;4381572;32;20101;-61
2023/11/09 07:57:22;;;;;;;0.30;0.30;;;9.70;99.90;;;;;;4393748;32;22127;-61
2023/11/09 07:59:47;;;;;;;0.70;0.70;;;9.70;99.90;;;;;;4377394;32;20233;-61
2023/11/09 08:02:13;;;;;;;0.47;0.40;;;9.70;99.90;;;;;;4390520;32;20522;-59
2023/11/09 08:04:39;;;;;;;0.50;0.50;;;9.70;99.90;;;;;;4394993;32;20086;-60
2023/11/09 08:07:05;;;;;;;0.40;0.40;;;9.70;99.90;;;;;;4401300;32;20094;-61
2023/11/09 08:09:31;;;;;;;0.43;0.43;;;9.70;99.90;;;;;;4399408;32;20070;-61
2023/11/09 08:11:57;;;;;;;0.30;0.30;;;9.80;99.90;;;;;;4398444;32;20153;-61
2023/11/09 08:14:22;;;;;;;0.40;0.40;;;9.80;99.90;;;;;;4394214;32;20073;-61
2023/11/09 08:16:48;;;;;;;0.30;0.30;;;9.80;99.90;;;;;;4397677;32;20073;-61
2023/11/09 08:19:13;;;;;;;0.77;0.45;;;9.90;99.90;;;;;;4402085;32;20078;-60
2023/11/09 08:21:39;;;;;;;0.40;0.40;;;9.90;99.90;;;;;;4395483;32;20115;-61
2023/11/09 08:24:06;;;;;;;0.60;0.45;;;9.90;99.90;;;;;;4395022;32;20097;-61
2023/11/09 08:26:32;;;;;;;0.32;0.32;;;9.90;99.90;;;;;;4397381;32;20613;-60
2023/11/09 08:28:58;;;;;;;0.30;0.30;;;10.00;99.90;;;;;;4395620;32;20089;-61
2023/11/09 08:31:25;;;;;;;0.30;0.30;;;10.10;99.90;;;;;;4399307;32;20517;-61
2023/11/09 08:33:53;;;;;;;16.70;1.37;;;10.10;99.90;;;;;;4398121;32;20614;-60
2023/11/09 08:36:18;;;;;;;1.20;0.77;;;10.20;99.90;;;;;;4394360;32;20822;-62
2023/11/09 08:38:44;;;;;;;0.30;0.30;;;10.30;99.90;;;;;;4397364;32;20093;-61
2023/11/09 08:41:09;;;;;;;0.40;0.40;;;10.30;99.90;;;;;;4396325;32;20089;-61
2023/11/09 08:43:36;;;;;;;0.37;0.37;;;10.40;99.90;;;;;;4399563;32;20064;-61
2023/11/09 08:46:02;;;;;;;0.50;0.50;;;10.40;99.90;;;;;;4396979;32;21340;-60
2023/11/09 08:48:29;;;;;;;0.30;0.30;;;10.40;99.90;;;;;;4390352;32;20101;-62
2023/11/09 08:51:00;;;;;;;0.30;0.30;;;10.50;99.90;;;;;;4390853;32;20093;-61
2023/11/09 08:53:31;;;;;;;0.40;0.40;;;10.50;99.90;;;;;;4391746;32;20073;-61
2023/11/09 08:55:58;;;;;;;0.40;0.40;;;10.50;99.90;;;;;;4394928;32;20113;-62
2023/11/09 08:58:24;;;;;;;0.40;0.40;;;10.60;99.90;;;;;;4387607;32;20616;-61
2023/11/09 09:00:51;;;;;;;0.30;0.30;;;10.50;99.90;;;;;;4391370;32;20065;-62
2023/11/09 09:03:16;;;;;;;0.52;0.52;;;10.50;99.90;;;;;;4393043;32;20409;-61
2023/11/09 09:05:42;;;;;;;1.65;0.55;;;10.50;99.90;;;;;;4392698;32;20077;-60
2023/11/09 09:08:08;;;;;;;1.40;0.68;;;10.60;99.90;;;;;;4393893;32;20449;-60
2023/11/09 09:10:35;;;;;;;0.30;0.30;;;10.60;99.90;;;;;;4381198;32;20614;-62
2023/11/09 09:13:01;;;;;;;0.40;0.40;;;10.60;99.90;;;;;;4386355;32;20093;-61
2023/11/09 09:15:28;;;;;;;11.45;1.15;;;10.70;99.90;;;;;;4400969;32;20077;-62
2023/11/09 09:17:55;;;;;;;0.25;0.25;;;10.80;99.90;;;;;;4383313;32;20111;-62
2023/11/09 09:20:21;;;;;;;1.45;0.60;;;10.80;99.90;;;;;;4400164;32;20153;-61
2023/11/09 09:22:49;;;;;;;0.20;0.20;;;10.80;99.90;;;;;;4400849;32;20148;-60
2023/11/09 09:25:16;;;;;;;0.30;0.30;;;10.80;99.90;;;;;;4396079;32;20082;-62
2023/11/09 09:27:43;;;;;;;0.73;0.73;;;10.90;99.90;;;;;;4395128;32;20086;-62
2023/11/09 09:30:11;;;;;;;0.30;0.30;;;10.90;99.90;;;;;;4386615;32;20094;-63
2023/11/09 09:32:37;;;;;;;0.40;0.40;;;11.00;99.90;;;;;;4385776;32;20195;-63
2023/11/09 09:35:06;;;;;;;0.25;0.25;;;11.00;99.90;;;;;;4390163;32;20094;-60
2023/11/09 09:37:32;;;;;;;0.35;0.35;;;11.10;99.90;;;;;;4395648;32;20118;-61
2023/11/09 09:39:58;;;;;;;0.65;0.52;;;11.10;99.90;;;;;;4382174;32;20074;-61
2023/11/09 09:42:25;;;;;;;1.27;0.50;;;11.20;99.90;;;;;;4396957;32;20081;-61
2023/11/09 09:44:52;;;;;;;0.25;0.25;;;11.20;99.90;;;;;;4393977;32;20584;-61
2023/11/09 09:47:20;;;;;;;3.53;0.80;;;11.20;99.90;;;;;;4381486;32;20844;-62
2023/11/09 09:49:49;;;;;;;0.30;0.30;;;11.20;99.90;;;;;;4379220;32;20085;-63
2023/11/09 09:52:16;;;;;;;0.30;0.30;;;11.30;99.90;;;;;;4389969;32;20070;-62
2023/11/09 09:54:43;;;;;;;0.28;0.28;;;11.30;99.90;;;;;;4396370;32;20066;-63
2023/11/09 09:57:10;;;;;;;0.30;0.30;;;11.30;99.90;;;;;;4389606;32;20239;-62
2023/11/09 09:59:36;;;;;;;0.50;0.50;;;11.30;99.90;;;;;;4374681;32;20077;-63
2023/11/09 10:02:06;;;;;;;0.40;0.40;;;11.30;99.90;;;;;;4397146;32;20168;-62
2023/11/09 10:04:33;;;;;;;0.30;0.30;;;11.30;99.90;;;;;;4395193;32;20478;-63
2023/11/09 10:06:58;;;;;;;0.30;0.30;;;11.40;99.90;;;;;;4387371;32;20086;-61
2023/11/09 10:09:25;;;;;;;0.30;0.30;;;11.40;99.90;;;;;;4395829;32;20074;-61
2023/11/09 10:11:54;;;;;;;0.25;0.25;;;11.40;99.90;;;;;;4381434;32;20081;-62
2023/11/09 10:14:23;;;;;;;14.23;0.52;;;11.40;99.90;;;;;;4396388;32;20090;-62
2023/11/09 10:16:49;;;;;;;0.30;0.30;;;11.40;99.90;;;;;;4384382;32;20156;-63
2023/11/09 10:19:16;;;;;;;0.45;0.45;;;11.50;99.90;;;;;;4386146;32;20097;-63
2023/11/09 10:21:44;;;;;;;0.43;0.40;;;11.50;99.90;;;;;;4386908;32;20106;-61
2023/11/09 10:24:14;;;;;;;0.40;0.40;;;11.50;99.90;;;;;;4381924;32;20090;-61
2023/11/09 10:26:41;;;;;;;0.50;0.50;;;11.50;99.90;;;;;;4393311;32;20541;-61
2023/11/09 10:29:13;;;;;;;0.40;0.40;;;11.50;99.90;;;;;;4394529;32;20105;-61
2023/11/09 10:31:41;;;;;;;0.30;0.30;;;11.50;99.90;;;;;;4392285;32;20493;-61
2023/11/09 10:34:11;;;;;;;0.57;0.57;;;11.40;99.90;;;;;;4397030;32;20084;-61
2023/11/09 10:36:39;;;;;;;0.30;0.30;;;11.40;99.90;;;;;;4395528;32;20081;-61
2023/11/09 10:39:17;;;;;;;0.37;0.37;;;11.40;99.90;;;;;;4395743;32;20116;-62
2023/11/09 10:41:48;;;;;;;0.40;0.40;;;11.40;99.90;;;;;;4377138;32;20139;-61
2023/11/09 10:44:18;;;;;;;0.30;0.30;;;11.40;99.90;;;;;;4378887;32;20074;-60
2023/11/09 10:46:45;;;;;;;0.45;0.45;;;11.40;99.90;;;;;;4393630;32;20082;-61
2023/11/09 10:49:14;;;;;;;0.28;0.28;;;11.40;99.90;;;;;;4391965;32;20106;-61
2023/11/09 10:51:44;;;;;;;0.50;0.50;;;11.40;99.90;;;;;;4391798;32;20171;-61
2023/11/09 10:54:15;;;;;;;0.73;0.63;;;11.40;99.90;;;;;;4393641;32;20065;-61
2023/11/09 10:56:42;;;;;;;3.85;0.93;;;11.50;99.90;;;;;;4397791;32;20151;-62
2023/11/09 10:59:09;;;;;;;0.93;0.60;;;11.50;99.90;;;;;;4393451;32;20073;-61
2023/11/09 11:01:37;;;;;;;0.40;0.40;;;11.50;99.90;;;;;;4376451;32;20094;-62
2023/11/09 11:04:08;;;;;;;0.40;0.40;;;11.50;99.90;;;;;;4397386;32;20117;-61
2023/11/09 11:06:42;;;;;;;0.20;0.20;;;11.60;99.90;;;;;;4394922;32;20062;-61
2023/11/09 11:09:18;;;;;;;0.30;0.30;;;11.60;99.90;;;;;;4395038;32;20085;-61
2023/11/09 11:11:47;;;;;;;15.80;3.30;;;11.60;99.90;;;;;;4400507;32;20600;-62
2023/11/09 11:14:14;;;;;;;0.40;0.40;;;11.60;99.90;;;;;;4398610;32;20082;-61
2023/11/09 11:17:03;;;;;;;0.30;0.30;;;11.70;99.90;;;;;;4398351;32;20089;-62
2023/11/09 11:19:44;;;;;;;0.30;0.30;;;11.60;99.90;;;;;;4380195;32;20081;-60
2023/11/09 11:22:42;;;;;;;0.32;0.32;;;11.60;99.90;;;;;;4397520;32;20094;-61
2023/11/09 11:25:26;;;;;;;0.40;0.40;;;11.60;99.90;;;;;;4398498;32;20082;-60
2023/11/09 11:27:56;;;;;;;0.40;0.40;;;11.60;99.90;;;;;;4396240;32;20077;-62
2023/11/09 11:30:25;;;;;;;0.32;0.32;;;11.70;99.90;;;;;;4397089;32;20502;-62
2023/11/09 11:32:55;;;;;;;0.40;0.40;;;11.70;99.90;;;;;;4394578;32;20098;-62
2023/11/09 11:35:39;;;;;;;0.73;0.50;;;11.80;99.90;;;;;;4383647;32;20078;-61
2023/11/09 11:38:22;;;;;;;0.40;0.40;;;11.80;99.90;;;;;;4381121;32;20202;-61
2023/11/09 11:41:12;;;;;;;1.85;1.10;;;11.90;99.90;;;;;;4396332;32;20423;-61
2023/11/09 11:43:40;;;;;;;0.32;0.32;;;11.90;99.90;;;;;;4394703;32;20082;-60
2023/11/09 11:46:08;;;;;;;0.30;0.30;;;11.90;99.90;;;;;;4396512;32;20077;-60
2023/11/09 11:48:34;;;;;;;0.40;0.40;;;11.90;99.90;;;;;;4394671;32;20140;-61
2023/11/09 11:51:01;;;;;;;0.35;0.35;;;11.90;99.90;;;;;;4374619;32;86033;-61
2023/11/09 11:53:30;;;;;;;0.40;0.40;;;12.00;99.90;;;;;;4398551;32;20101;-61
2023/11/09 11:55:58;;;;;;;0.50;0.50;;;12.10;99.90;;;;;;4386026;32;20140;-62
2023/11/09 11:58:27;;;;;;;0.68;0.68;;;12.20;99.90;;;;;;4394126;32;20502;-61
2023/11/09 12:00:54;;;;;;;0.30;0.30;;;12.40;99.90;;;;;;4393996;32;21321;-61
2023/11/09 12:03:24;;;;;;;0.30;0.30;;;12.60;99.90;;;;;;4395471;32;20121;-62
2023/11/09 12:05:50;;;;;;;0.40;0.40;;;12.90;99.90;;;;;;4402486;32;20090;-61
2023/11/09 12:08:16;;;;;;;1.35;0.55;;;13.20;99.90;;;;;;4399373;32;20348;-60
2023/11/09 12:10:42;;;;;;;0.25;0.25;;;13.20;99.90;;;;;;4394617;32;20195;-62
2023/11/09 12:13:09;;;;;;;0.30;0.30;;;13.00;99.90;;;;;;4397971;32;20545;-61
2023/11/09 12:15:37;;;;;;;0.30;0.30;;;12.90;99.90;;;;;;4397673;32;20073;-60
2023/11/09 12:18:03;;;;;;;0.40;0.40;;;12.80;99.90;;;;;;4387761;32;21069;-60
2023/11/09 12:20:33;;;;;;;0.40;0.40;;;12.70;99.90;;;;;;4393803;32;20093;-59
2023/11/09 12:23:05;;;;;;;0.60;0.60;;;12.60;99.90;;;;;;4399737;32;20101;-61
2023/11/09 12:25:48;;;;;;;0.40;0.40;;;12.60;99.90;;;;;;4393810;32;20190;-62
2023/11/09 12:28:15;;;;;;;0.30;0.30;;;12.60;99.90;;;;;;4381996;32;20087;-61
2023/11/09 12:30:41;;;;;;;0.40;0.40;;;12.60;99.90;;;;;;4398651;32;20483;-61
2023/11/09 12:33:08;;;;;;;0.50;0.50;;;12.50;99.90;;;;;;4397690;32;20066;-61
2023/11/09 12:35:34;;;;;;;0.40;0.40;;;12.40;99.90;;;;;;4396674;32;20070;-61
2023/11/09 12:38:01;;;;;;;5.93;0.98;;;12.40;99.90;;;;;;4396083;32;20847;-61
2023/11/09 12:40:28;;;;;;;0.40;0.40;;;12.30;99.90;;;;;;4398594;32;20085;-61
2023/11/09 12:42:55;;;;;;;0.52;0.52;;;12.30;99.90;;;;;;4383567;32;20148;-61
2023/11/09 12:45:21;;;;;;;0.40;0.40;;;12.30;99.90;;;;;;4400727;32;20140;-61
2023/11/09 12:47:46;;;;;;;0.50;0.50;;;12.30;99.90;;;;;;4399762;32;20478;-61
2023/11/09 12:50:16;;;;;;;0.30;0.30;;;12.20;99.90;;;;;;4394635;32;20141;-59
2023/11/09 12:52:43;;;;;;;0.40;0.40;;;12.20;99.90;;;;;;4400778;32;20097;-61
2023/11/09 12:55:08;;;;;;;0.40;0.40;;;12.20;99.90;;;;;;4404285;32;20078;-60